sensor_id;sensor_type;location;lat;lon;timestamp;pressure;altitude;pressure_sealevel;temperature;humidity
69167;BME280;56273;53.148;8.204;2022-08-21T00:00:19;101614.28;;;23.48;nan
69167;BME280;56273;53.148;8.204;2022-08-21T00:02:52;101612.47;;;23.48;nan
69167;BME280;56273;53.148;8.204;2022-08-21T00:05:26;101612.47;;;23.48;nan
69167;BME280;56273;53.148;8.204;2022-08-21T00:07:52;101613.34;;;23.49;nan
69167;BME280;56273;53.148;8.204;2022-08-21T00:10:19;101608.00;;;23.49;nan
69167;BME280;56273;53.148;8.204;2022-08-21T00:12:46;101600.91;;;23.48;nan
69167;BME280;56273;53.148;8.204;2022-08-21T00:15:13;101603.50;;;23.49;nan
69167;BME280;56273;53.148;8.204;2022-08-21T00:17:40;101600.84;;;23.49;nan
69167;BME280;56273;53.148;8.204;2022-08-21T00:20:06;101586.59;;;23.49;nan
69167;BME280;56273;53.148;8.204;2022-08-21T00:22:33;101587.56;;;23.48;nan
69167;BME280;56273;53.148;8.204;2022-08-21T00:24:59;101591.09;;;23.48;nan
69167;BME280;56273;53.148;8.204;2022-08-21T00:27:25;101586.59;;;23.49;nan
69167;BME280;56273;53.148;8.204;2022-08-21T00:29:50;101589.28;;;23.49;nan
69167;BME280;56273;53.148;8.204;2022-08-21T00:32:23;101586.59;;;23.49;nan
69167;BME280;56273;53.148;8.204;2022-08-21T00:34:49;101586.66;;;23.47;nan
69167;BME280;56273;53.148;8.204;2022-08-21T00:37:15;101574.19;;;23.48;nan
69167;BME280;56273;53.148;8.204;2022-08-21T00:39:41;101587.47;;;23.49;nan
69167;BME280;56273;53.148;8.204;2022-08-21T00:42:07;101580.41;;;23.48;nan
69167;BME280;56273;53.148;8.204;2022-08-21T00:44:33;101581.25;;;23.49;nan
69167;BME280;56273;53.148;8.204;2022-08-21T00:46:58;101579.53;;;23.48;nan
69167;BME280;56273;53.148;8.204;2022-08-21T00:49:24;101574.09;;;23.49;nan
69167;BME280;56273;53.148;8.204;2022-08-21T00:51:50;101575.06;;;23.48;nan
69167;BME280;56273;53.148;8.204;2022-08-21T00:54:19;101579.47;;;23.49;nan
69167;BME280;56273;53.148;8.204;2022-08-21T00:56:50;101576.78;;;23.49;nan
69167;BME280;56273;53.148;8.204;2022-08-21T00:59:20;101579.47;;;23.49;nan
69167;BME280;56273;53.148;8.204;2022-08-21T01:01:47;101575.91;;;23.49;nan
69167;BME280;56273;53.148;8.204;2022-08-21T01:04:13;101575.06;;;23.48;nan
69167;BME280;56273;53.148;8.204;2022-08-21T01:06:40;101575.06;;;23.48;nan
69167;BME280;56273;53.148;8.204;2022-08-21T01:09:05;101575.06;;;23.48;nan
69167;BME280;56273;53.148;8.204;2022-08-21T01:11:31;101576.78;;;23.49;nan
69167;BME280;56273;53.148;8.204;2022-08-21T01:13:56;101575.91;;;23.49;nan
69167;BME280;56273;53.148;8.204;2022-08-21T01:16:22;101569.72;;;23.48;nan
69167;BME280;56273;53.148;8.204;2022-08-21T01:18:49;101576.78;;;23.49;nan
69167;BME280;56273;53.148;8.204;2022-08-21T01:21:17;101576.78;;;23.49;nan
69167;BME280;56273;53.148;8.204;2022-08-21T01:23:46;101575.91;;;23.49;nan
69167;BME280;56273;53.148;8.204;2022-08-21T01:26:14;101578.59;;;23.49;nan
69167;BME280;56273;53.148;8.204;2022-08-21T01:28:44;101575.91;;;23.49;nan
69167;BME280;56273;53.148;8.204;2022-08-21T01:31:15;101582.13;;;23.49;nan
69167;BME280;56273;53.148;8.204;2022-08-21T01:33:44;101582.13;;;23.49;nan
69167;BME280;56273;53.148;8.204;2022-08-21T01:36:09;101581.25;;;23.49;nan
69167;BME280;56273;53.148;8.204;2022-08-21T01:38:34;101574.09;;;23.49;nan
69167;BME280;56273;53.148;8.204;2022-08-21T01:41:00;101575.91;;;23.49;nan
69167;BME280;56273;53.148;8.204;2022-08-21T01:43:26;101575.06;;;23.48;nan
69167;BME280;56273;53.148;8.204;2022-08-21T01:45:51;101579.47;;;23.49;nan
69167;BME280;56273;53.148;8.204;2022-08-21T01:48:16;101582.13;;;23.49;nan
69167;BME280;56273;53.148;8.204;2022-08-21T01:50:41;101576.78;;;23.49;nan
69167;BME280;56273;53.148;8.204;2022-08-21T01:53:07;101575.91;;;23.49;nan
69167;BME280;56273;53.148;8.204;2022-08-21T01:55:32;101571.44;;;23.49;nan
69167;BME280;56273;53.148;8.204;2022-08-21T01:57:58;101575.06;;;23.48;nan
69167;BME280;56273;53.148;8.204;2022-08-21T02:00:24;101579.47;;;23.49;nan
69167;BME280;56273;53.148;8.204;2022-08-21T02:02:49;101575.91;;;23.49;nan
69167;BME280;56273;53.148;8.204;2022-08-21T02:05:15;101575.91;;;23.49;nan
69167;BME280;56273;53.148;8.204;2022-08-21T02:07:45;101565.22;;;23.49;nan
69167;BME280;56273;53.148;8.204;2022-08-21T02:10:13;101565.22;;;23.49;nan
69167;BME280;56273;53.148;8.204;2022-08-21T02:12:40;101560.84;;;23.48;nan
69167;BME280;56273;53.148;8.204;2022-08-21T02:15:06;101564.38;;;23.48;nan
69167;BME280;56273;53.148;8.204;2022-08-21T02:17:38;101559.03;;;23.48;nan
69167;BME280;56273;53.148;8.204;2022-08-21T02:20:09;101557.22;;;23.49;nan
69167;BME280;56273;53.148;8.204;2022-08-21T02:22:39;101563.41;;;23.49;nan
69167;BME280;56273;53.148;8.204;2022-08-21T02:25:05;101548.34;;;23.48;nan
69167;BME280;56273;53.148;8.204;2022-08-21T02:27:36;101551.88;;;23.49;nan
69167;BME280;56273;53.148;8.204;2022-08-21T02:30:04;101559.88;;;23.49;nan
69167;BME280;56273;53.148;8.204;2022-08-21T02:32:29;101548.34;;;23.48;nan
69167;BME280;56273;53.148;8.204;2022-08-21T02:34:56;101549.19;;;23.49;nan
69167;BME280;56273;53.148;8.204;2022-08-21T02:37:22;101548.34;;;23.48;nan
69167;BME280;56273;53.148;8.204;2022-08-21T02:39:48;101550.06;;;23.49;nan
69167;BME280;56273;53.148;8.204;2022-08-21T02:42:13;101550.06;;;23.49;nan
69167;BME280;56273;53.148;8.204;2022-08-21T02:44:39;101544.81;;;23.48;nan
69167;BME280;56273;53.148;8.204;2022-08-21T02:47:04;101542.13;;;23.48;nan
69167;BME280;56273;53.148;8.204;2022-08-21T02:49:29;101537.66;;;23.48;nan
69167;BME280;56273;53.148;8.204;2022-08-21T02:51:54;101531.44;;;23.48;nan
69167;BME280;56273;53.148;8.204;2022-08-21T02:54:20;101538.56;;;23.47;nan
69167;BME280;56273;53.148;8.204;2022-08-21T02:56:45;101534.97;;;23.48;nan
69167;BME280;56273;53.148;8.204;2022-08-21T02:59:11;101532.31;;;23.48;nan
69167;BME280;56273;53.148;8.204;2022-08-21T03:01:36;101535.91;;;23.47;nan
69167;BME280;56273;53.148;8.204;2022-08-21T03:04:02;101550.16;;;23.48;nan
69167;BME280;56273;53.148;8.204;2022-08-21T03:06:27;101541.25;;;23.47;nan
69167;BME280;56273;53.148;8.204;2022-08-21T03:08:54;101550.16;;;23.48;nan
69167;BME280;56273;53.148;8.204;2022-08-21T03:11:19;101545.72;;;23.47;nan
69167;BME280;56273;53.148;8.204;2022-08-21T03:13:45;101536.78;;;23.48;nan
69167;BME280;56273;53.148;8.204;2022-08-21T03:16:11;101537.66;;;23.48;nan
69167;BME280;56273;53.148;8.204;2022-08-21T03:18:37;101541.25;;;23.47;nan
69167;BME280;56273;53.148;8.204;2022-08-21T03:21:02;101551.00;;;23.48;nan
69167;BME280;56273;53.148;8.204;2022-08-21T03:23:28;101546.59;;;23.47;nan
69167;BME280;56273;53.148;8.204;2022-08-21T03:25:55;101543.91;;;23.47;nan
69167;BME280;56273;53.148;8.204;2022-08-21T03:28:21;101541.25;;;23.47;nan
69167;BME280;56273;53.148;8.204;2022-08-21T03:30:47;101530.56;;;23.47;nan
69167;BME280;56273;53.148;8.204;2022-08-21T03:33:14;101528.81;;;23.46;nan
69167;BME280;56273;53.148;8.204;2022-08-21T03:35:40;101533.22;;;23.47;nan
69167;BME280;56273;53.148;8.204;2022-08-21T03:38:10;101534.13;;;23.48;nan
69167;BME280;56273;53.148;8.204;2022-08-21T03:40:37;101527.88;;;23.47;nan
69167;BME280;56273;53.148;8.204;2022-08-21T03:43:02;101521.66;;;23.47;nan
69167;BME280;56273;53.148;8.204;2022-08-21T03:45:28;101528.81;;;23.46;nan
69167;BME280;56273;53.148;8.204;2022-08-21T03:47:55;101525.19;;;23.47;nan
69167;BME280;56273;53.148;8.204;2022-08-21T03:50:27;101528.81;;;23.46;nan
69167;BME280;56273;53.148;8.204;2022-08-21T03:52:54;101531.50;;;23.46;nan
69167;BME280;56273;53.148;8.204;2022-08-21T03:55:20;101525.28;;;23.46;nan
69167;BME280;56273;53.148;8.204;2022-08-21T03:57:46;101523.47;;;23.46;nan
69167;BME280;56273;53.148;8.204;2022-08-21T04:00:12;101527.00;;;23.47;nan
69167;BME280;56273;53.148;8.204;2022-08-21T04:02:40;101527.00;;;23.47;nan
69167;BME280;56273;53.148;8.204;2022-08-21T04:05:06;101527.09;;;23.45;nan
69167;BME280;56273;53.148;8.204;2022-08-21T04:07:32;101526.16;;;23.46;nan
69167;BME280;56273;53.148;8.204;2022-08-21T04:09:57;101520.91;;;23.45;nan
69167;BME280;56273;53.148;8.204;2022-08-21T04:12:22;101529.69;;;23.47;nan
69167;BME280;56273;53.148;8.204;2022-08-21T04:14:48;101526.16;;;23.46;nan
69167;BME280;56273;53.148;8.204;2022-08-21T04:17:14;101526.16;;;23.46;nan
69167;BME280;56273;53.148;8.204;2022-08-21T04:19:39;101532.34;;;23.47;nan
69167;BME280;56273;53.148;8.204;2022-08-21T04:22:04;101534.16;;;23.46;nan
69167;BME280;56273;53.148;8.204;2022-08-21T04:24:30;101535.13;;;23.45;nan
69167;BME280;56273;53.148;8.204;2022-08-21T04:26:55;101536.94;;;23.45;nan
69167;BME280;56273;53.148;8.204;2022-08-21T04:29:20;101537.78;;;23.45;nan
69167;BME280;56273;53.148;8.204;2022-08-21T04:31:45;101542.19;;;23.46;nan
69167;BME280;56273;53.148;8.204;2022-08-21T04:34:11;101529.78;;;23.45;nan
69167;BME280;56273;53.148;8.204;2022-08-21T04:36:36;101540.47;;;23.45;nan
69167;BME280;56273;53.148;8.204;2022-08-21T04:39:01;101537.78;;;23.45;nan
69167;BME280;56273;53.148;8.204;2022-08-21T04:41:27;101545.81;;;23.45;nan
69167;BME280;56273;53.148;8.204;2022-08-21T04:43:53;101543.13;;;23.45;nan
69167;BME280;56273;53.148;8.204;2022-08-21T04:46:20;101548.47;;;23.45;nan
69167;BME280;56273;53.148;8.204;2022-08-21T04:48:46;101544.84;;;23.46;nan
69167;BME280;56273;53.148;8.204;2022-08-21T04:51:12;101546.69;;;23.46;nan
69167;BME280;56273;53.148;8.204;2022-08-21T04:53:43;101550.22;;;23.46;nan
69167;BME280;56273;53.148;8.204;2022-08-21T04:56:17;101548.47;;;23.45;nan
69167;BME280;56273;53.148;8.204;2022-08-21T04:58:46;101544.84;;;23.46;nan
69167;BME280;56273;53.148;8.204;2022-08-21T05:01:14;101555.56;;;23.46;nan
69167;BME280;56273;53.148;8.204;2022-08-21T05:03:43;101559.16;;;23.45;nan
69167;BME280;56273;53.148;8.204;2022-08-21T05:06:10;101558.22;;;23.46;nan
69167;BME280;56273;53.148;8.204;2022-08-21T05:08:38;101561.75;;;23.47;nan
69167;BME280;56273;53.148;8.204;2022-08-21T05:11:05;101561.75;;;23.47;nan
69167;BME280;56273;53.148;8.204;2022-08-21T05:13:31;101560.91;;;23.46;nan
69167;BME280;56273;53.148;8.204;2022-08-21T05:15:57;101557.38;;;23.46;nan
69167;BME280;56273;53.148;8.204;2022-08-21T05:18:23;101560.84;;;23.48;nan
69167;BME280;56273;53.148;8.204;2022-08-21T05:20:49;101555.56;;;23.46;nan
69167;BME280;56273;53.148;8.204;2022-08-21T05:23:14;101559.09;;;23.47;nan
69167;BME280;56273;53.148;8.204;2022-08-21T05:25:40;101561.75;;;23.47;nan
69167;BME280;56273;53.148;8.204;2022-08-21T05:28:06;101559.94;;;23.47;nan
69167;BME280;56273;53.148;8.204;2022-08-21T05:30:32;101556.41;;;23.47;nan
69167;BME280;56273;53.148;8.204;2022-08-21T05:32:58;101558.16;;;23.48;nan
69167;BME280;56273;53.148;8.204;2022-08-21T05:35:25;101557.28;;;23.47;nan
69167;BME280;56273;53.148;8.204;2022-08-21T05:37:52;101551.00;;;23.48;nan
69167;BME280;56273;53.148;8.204;2022-08-21T05:40:17;101555.41;;;23.49;nan
69167;BME280;56273;53.148;8.204;2022-08-21T05:42:43;101553.69;;;23.48;nan
69167;BME280;56273;53.148;8.204;2022-08-21T05:45:09;101553.69;;;23.48;nan
69167;BME280;56273;53.148;8.204;2022-08-21T05:47:35;101557.13;;;23.50;nan
69167;BME280;56273;53.148;8.204;2022-08-21T05:50:00;101549.97;;;23.51;nan
69167;BME280;56273;53.148;8.204;2022-08-21T05:52:25;101546.44;;;23.50;nan
69167;BME280;56273;53.148;8.204;2022-08-21T05:54:51;101553.50;;;23.51;nan
69167;BME280;56273;53.148;8.204;2022-08-21T05:57:19;101554.34;;;23.52;nan
69167;BME280;56273;53.148;8.204;2022-08-21T05:59:45;101544.56;;;23.52;nan
69167;BME280;56273;53.148;8.204;2022-08-21T06:02:11;101540.94;;;23.53;nan
69167;BME280;56273;53.148;8.204;2022-08-21T06:04:37;101544.47;;;23.54;nan
69167;BME280;56273;53.148;8.204;2022-08-21T06:07:03;101548.00;;;23.54;nan
69167;BME280;56273;53.148;8.204;2022-08-21T06:09:29;101547.16;;;23.54;nan
69167;BME280;56273;53.148;8.204;2022-08-21T06:11:54;101546.28;;;23.53;nan
69167;BME280;56273;53.148;8.204;2022-08-21T06:14:19;101544.38;;;23.55;nan
69167;BME280;56273;53.148;8.204;2022-08-21T06:16:44;101545.25;;;23.56;nan
69167;BME280;56273;53.148;8.204;2022-08-21T06:19:10;101546.09;;;23.56;nan
69167;BME280;56273;53.148;8.204;2022-08-21T06:21:35;101548.72;;;23.58;nan
69167;BME280;56273;53.148;8.204;2022-08-21T06:24:00;101547.75;;;23.59;nan
69167;BME280;56273;53.148;8.204;2022-08-21T06:26:26;101553.09;;;23.59;nan
69167;BME280;56273;53.148;8.204;2022-08-21T06:28:53;101553.97;;;23.60;nan
69167;BME280;56273;53.148;8.204;2022-08-21T06:31:20;101553.03;;;23.61;nan
69167;BME280;56273;53.148;8.204;2022-08-21T06:33:48;101548.53;;;23.61;nan
69167;BME280;56273;53.148;8.204;2022-08-21T06:36:13;101552.91;;;23.64;nan
69167;BME280;56273;53.148;8.204;2022-08-21T06:38:39;101553.75;;;23.64;nan
69167;BME280;56273;53.148;8.204;2022-08-21T06:41:05;101555.47;;;23.65;nan
69167;BME280;56273;53.148;8.204;2022-08-21T06:43:31;101559.03;;;23.66;nan
69167;BME280;56273;53.148;8.204;2022-08-21T06:45:56;101558.09;;;23.67;nan
69167;BME280;56273;53.148;8.204;2022-08-21T06:48:21;101550.06;;;23.67;nan
69167;BME280;56273;53.148;8.204;2022-08-21T06:50:47;101560.69;;;23.68;nan
69167;BME280;56273;53.148;8.204;2022-08-21T06:53:13;101548.19;;;23.69;nan
69167;BME280;56273;53.148;8.204;2022-08-21T06:55:41;101551.81;;;23.68;nan
69167;BME280;56273;53.148;8.204;2022-08-21T06:58:07;101546.03;;;23.58;nan
69167;BME280;56273;53.148;8.204;2022-08-21T07:00:34;101547.38;;;23.49;nan
69167;BME280;56273;53.148;8.204;2022-08-21T07:03:00;101535.03;;;23.47;nan
69167;BME280;56273;53.148;8.204;2022-08-21T07:05:26;101540.31;;;23.48;nan
69167;BME280;56273;53.148;8.204;2022-08-21T07:07:54;101540.47;;;23.45;nan
69167;BME280;56273;53.148;8.204;2022-08-21T07:10:19;101546.59;;;23.47;nan
69167;BME280;56273;53.148;8.204;2022-08-21T07:12:45;101546.44;;;23.50;nan
69167;BME280;56273;53.148;8.204;2022-08-21T07:15:10;101541.91;;;23.52;nan
69167;BME280;56273;53.148;8.204;2022-08-21T07:17:35;101543.63;;;23.53;nan
69167;BME280;56273;53.148;8.204;2022-08-21T07:20:01;101543.44;;;23.56;nan
69167;BME280;56273;53.148;8.204;2022-08-21T07:22:27;101544.28;;;23.57;nan
69167;BME280;56273;53.148;8.204;2022-08-21T07:24:53;101547.69;;;23.61;nan
69167;BME280;56273;53.148;8.204;2022-08-21T07:27:19;101544.00;;;23.63;nan
69167;BME280;56273;53.148;8.204;2022-08-21T07:29:44;101537.72;;;23.64;nan
69167;BME280;56273;53.148;8.204;2022-08-21T07:32:10;101540.31;;;23.66;nan
69167;BME280;56273;53.148;8.204;2022-08-21T07:34:35;101543.78;;;23.68;nan
69167;BME280;56273;53.148;8.204;2022-08-21T07:37:00;101549.91;;;23.70;nan
69167;BME280;56273;53.148;8.204;2022-08-21T07:39:25;101545.16;;;23.75;nan
69167;BME280;56273;53.148;8.204;2022-08-21T07:41:51;101549.41;;;23.79;nan
69167;BME280;56273;53.148;8.204;2022-08-21T07:44:16;101556.31;;;23.83;nan
69167;BME280;56273;53.148;8.204;2022-08-21T07:46:42;101549.88;;;23.87;nan
69167;BME280;56273;53.148;8.204;2022-08-21T07:49:07;101554.25;;;23.88;nan
69167;BME280;56273;53.148;8.204;2022-08-21T07:51:32;101554.00;;;23.93;nan
69167;BME280;56273;53.148;8.204;2022-08-21T07:53:58;101545.91;;;23.94;nan
69167;BME280;56273;53.148;8.204;2022-08-21T07:56:25;101540.56;;;23.94;nan
69167;BME280;56273;53.148;8.204;2022-08-21T07:58:51;101545.28;;;23.89;nan
69167;BME280;56273;53.148;8.204;2022-08-21T08:01:17;101548.06;;;23.88;nan
69167;BME280;56273;53.148;8.204;2022-08-21T08:03:43;101548.06;;;23.88;nan
69167;BME280;56273;53.148;8.204;2022-08-21T08:06:10;101547.00;;;23.90;nan
69167;BME280;56273;53.148;8.204;2022-08-21T08:08:37;101545.03;;;23.94;nan
69167;BME280;56273;53.148;8.204;2022-08-21T08:11:04;101545.66;;;23.99;nan
69167;BME280;56273;53.148;8.204;2022-08-21T08:13:29;101548.16;;;24.02;nan
69167;BME280;56273;53.148;8.204;2022-08-21T08:15:54;101543.69;;;24.02;nan
69167;BME280;56273;53.148;8.204;2022-08-21T08:18:20;101537.28;;;24.05;nan
69167;BME280;56273;53.148;8.204;2022-08-21T08:20:45;101546.00;;;24.09;nan
69167;BME280;56273;53.148;8.204;2022-08-21T08:23:11;101541.47;;;24.11;nan
69167;BME280;56273;53.148;8.204;2022-08-21T08:25:37;101545.75;;;24.13;nan
69167;BME280;56273;53.148;8.204;2022-08-21T08:28:04;101537.66;;;24.15;nan
69167;BME280;56273;53.148;8.204;2022-08-21T08:30:30;101536.53;;;24.19;nan
69167;BME280;56273;53.148;8.204;2022-08-21T08:32:55;101539.13;;;24.20;nan
69167;BME280;56273;53.148;8.204;2022-08-21T08:35:22;101536.38;;;24.22;nan
69167;BME280;56273;53.148;8.204;2022-08-21T08:37:47;101538.88;;;24.25;nan
69167;BME280;56273;53.148;8.204;2022-08-21T08:42:47;101541.38;;;24.28;nan
69167;BME280;56273;53.148;8.204;2022-08-21T08:45:13;101541.31;;;24.29;nan
69167;BME280;56273;53.148;8.204;2022-08-21T08:47:44;101541.22;;;24.31;nan
69167;BME280;56273;53.148;8.204;2022-08-21T08:50:17;101536.63;;;24.33;nan
69167;BME280;56273;53.148;8.204;2022-08-21T08:53:02;101540.09;;;24.35;nan
69167;BME280;56273;53.148;8.204;2022-08-21T08:55:35;101548.75;;;24.40;nan
69167;BME280;56273;53.148;8.204;2022-08-21T08:58:04;101539.66;;;24.43;nan
69167;BME280;56273;53.148;8.204;2022-08-21T09:00:30;101539.59;;;24.44;nan
69167;BME280;56273;53.148;8.204;2022-08-21T09:02:57;101542.09;;;24.47;nan
69167;BME280;56273;53.148;8.204;2022-08-21T09:05:28;101542.88;;;24.49;nan
69167;BME280;56273;53.148;8.204;2022-08-21T09:19:05;101537.19;;;24.55;nan
69167;BME280;56273;53.148;8.204;2022-08-21T09:21:53;101535.47;;;24.54;nan
69167;BME280;56273;53.148;8.204;2022-08-21T09:24:49;101540.63;;;24.57;nan
69167;BME280;56273;53.148;8.204;2022-08-21T09:27:20;101535.63;;;24.51;nan
69167;BME280;56273;53.148;8.204;2022-08-21T09:29:47;101526.63;;;24.52;nan
69167;BME280;56273;53.148;8.204;2022-08-21T09:32:19;101526.31;;;24.59;nan
69167;BME280;56273;53.148;8.204;2022-08-21T09:35:01;101518.00;;;24.63;nan
69167;BME280;56273;53.148;8.204;2022-08-21T09:40:28;101513.16;;;24.70;nan
69167;BME280;56273;53.148;8.204;2022-08-21T09:43:21;101526.69;;;24.67;nan
69167;BME280;56273;53.148;8.204;2022-08-21T09:46:00;101529.63;;;24.62;nan
69167;BME280;56273;53.148;8.204;2022-08-21T09:48:29;101541.41;;;24.60;nan
69167;BME280;56273;53.148;8.204;2022-08-21T09:51:05;101537.41;;;24.67;nan
69167;BME280;56273;53.148;8.204;2022-08-21T09:53:32;101524.03;;;24.67;nan
69167;BME280;56273;53.148;8.204;2022-08-21T09:56:04;101519.03;;;24.61;nan
69167;BME280;56273;53.148;8.204;2022-08-21T09:58:59;101530.97;;;24.55;nan
69167;BME280;56273;53.148;8.204;2022-08-21T10:01:25;101527.53;;;24.53;nan
69167;BME280;56273;53.148;8.204;2022-08-21T10:04:04;101528.53;;;24.50;nan
69167;BME280;56273;53.148;8.204;2022-08-21T10:06:32;101513.84;;;24.57;nan
69167;BME280;56273;53.148;8.204;2022-08-21T10:09:09;101517.81;;;24.66;nan
69167;BME280;56273;53.148;8.204;2022-08-21T10:11:37;101513.91;;;24.72;nan
69167;BME280;56273;53.148;8.204;2022-08-21T10:19:50;101517.38;;;24.74;nan
69167;BME280;56273;53.148;8.204;2022-08-21T10:25:01;101512.78;;;24.76;nan
69167;BME280;56273;53.148;8.204;2022-08-21T10:27:44;101500.34;;;24.75;nan
69167;BME280;56273;53.148;8.204;2022-08-21T10:30:23;101502.44;;;24.70;nan
69167;BME280;56273;53.148;8.204;2022-08-21T10:33:11;101496.50;;;24.65;nan
69167;BME280;56273;53.148;8.204;2022-08-21T10:35:49;101493.81;;;24.65;nan
69167;BME280;56273;53.148;8.204;2022-08-21T10:49:22;101485.31;;;24.88;nan
69167;BME280;56273;53.148;8.204;2022-08-21T10:57:22;101491.06;;;24.96;nan
69167;BME280;56273;53.148;8.204;2022-08-21T10:59:57;101497.09;;;25.00;nan
69167;BME280;56273;53.148;8.204;2022-08-21T11:10:26;101498.91;;;24.99;nan
69167;BME280;56273;53.148;8.204;2022-08-21T11:12:58;101497.66;;;25.05;nan
69167;BME280;56273;53.148;8.204;2022-08-21T11:15:40;101493.03;;;25.08;nan
69167;BME280;56273;53.148;8.204;2022-08-21T11:18:20;101486.09;;;25.04;nan
69167;BME280;56273;53.148;8.204;2022-08-21T11:26:15;101481.06;;;25.14;nan
69167;BME280;56273;53.148;8.204;2022-08-21T11:28:53;101481.88;;;25.16;nan
69167;BME280;56273;53.148;8.204;2022-08-21T11:36:44;101494.88;;;25.22;nan
69167;BME280;56273;53.148;8.204;2022-08-21T11:39:19;101486.75;;;25.24;nan
69167;BME280;56273;53.148;8.204;2022-08-21T11:41:54;101496.44;;;25.26;nan
69167;BME280;56273;53.148;8.204;2022-08-21T11:44:48;101495.16;;;25.18;nan
69167;BME280;56273;53.148;8.204;2022-08-21T11:52:43;101491.63;;;25.17;nan
69167;BME280;56273;53.148;8.204;2022-08-21T11:55:23;101492.66;;;25.15;nan
69167;BME280;56273;53.148;8.204;2022-08-21T11:58:02;101488.84;;;25.19;nan
69167;BME280;56273;53.148;8.204;2022-08-21T12:00:39;101491.25;;;25.23;nan
69167;BME280;56273;53.148;8.204;2022-08-21T12:03:16;101497.28;;;25.27;nan
69167;BME280;56273;53.148;8.204;2022-08-21T12:06:06;101489.81;;;25.32;nan
69167;BME280;56273;53.148;8.204;2022-08-21T12:08:33;101484.56;;;25.30;nan
69167;BME280;56273;53.148;8.204;2022-08-21T12:11:03;101487.16;;;25.32;nan
69167;BME280;56273;53.148;8.204;2022-08-21T12:16:40;101479.69;;;25.37;nan
69167;BME280;56273;53.148;8.204;2022-08-21T12:21:47;101481.97;;;25.29;nan
69167;BME280;56273;53.148;8.204;2022-08-21T12:24:18;101475.84;;;25.27;nan
69167;BME280;56273;53.148;8.204;2022-08-21T12:29:30;101479.84;;;25.34;nan
69167;BME280;56273;53.148;8.204;2022-08-21T12:32:41;101484.09;;;25.38;nan
69167;BME280;56273;53.148;8.204;2022-08-21T12:37:22;101473.19;;;25.41;nan
69167;BME280;56273;53.148;8.204;2022-08-21T12:39:54;101474.03;;;25.42;nan
69167;BME280;56273;53.148;8.204;2022-08-21T12:42:34;101479.28;;;25.43;nan
69167;BME280;56273;53.148;8.204;2022-08-21T12:45:10;101484.47;;;25.46;nan
69167;BME280;56273;53.148;8.204;2022-08-21T12:47:59;101480.84;;;25.47;nan
69167;BME280;56273;53.148;8.204;2022-08-21T12:50:44;101476.25;;;25.49;nan
69167;BME280;56273;53.148;8.204;2022-08-21T12:56:01;101471.75;;;25.50;nan
69167;BME280;56273;53.148;8.204;2022-08-21T12:58:28;101466.41;;;25.50;nan
69167;BME280;56273;53.148;8.204;2022-08-21T13:03:28;101459.97;;;25.52;nan
69167;BME280;56273;53.148;8.204;2022-08-21T13:05:55;101466.28;;;25.51;nan
69167;BME280;56273;53.148;8.204;2022-08-21T13:08:22;101462.28;;;25.44;nan
69167;BME280;56273;53.148;8.204;2022-08-21T13:10:56;101461.59;;;25.41;nan
69167;BME280;56273;53.148;8.204;2022-08-21T13:13:26;101457.78;;;25.45;nan
69167;BME280;56273;53.148;8.204;2022-08-21T13:15:59;101451.28;;;25.49;nan
69167;BME280;56273;53.148;8.204;2022-08-21T13:18:29;101451.16;;;25.50;nan
69167;BME280;56273;53.148;8.204;2022-08-21T13:21:10;101446.56;;;25.52;nan
69167;BME280;56273;53.148;8.204;2022-08-21T13:23:38;101456.44;;;25.52;nan
69167;BME280;56273;53.148;8.204;2022-08-21T13:26:14;101451.06;;;25.52;nan
69167;BME280;56273;53.148;8.204;2022-08-21T13:28:41;101452.22;;;25.48;nan
69167;BME280;56273;53.148;8.204;2022-08-21T13:31:07;101446.00;;;25.47;nan
69167;BME280;56273;53.148;8.204;2022-08-21T13:33:38;101454.72;;;25.51;nan
69167;BME280;56273;53.148;8.204;2022-08-21T13:36:10;101451.28;;;25.49;nan
69167;BME280;56273;53.148;8.204;2022-08-21T13:38:42;101454.03;;;25.47;nan
69167;BME280;56273;53.148;8.204;2022-08-21T13:41:17;101453.84;;;25.50;nan
69167;BME280;56273;53.148;8.204;2022-08-21T13:43:56;101445.81;;;25.50;nan
69167;BME280;56273;53.148;8.204;2022-08-21T13:46:39;101453.75;;;25.52;nan
69167;BME280;56273;53.148;8.204;2022-08-21T13:49:05;101451.91;;;25.52;nan
69167;BME280;56273;53.148;8.204;2022-08-21T13:51:33;101453.75;;;25.52;nan
69167;BME280;56273;53.148;8.204;2022-08-21T13:53:59;101460.81;;;25.53;nan
69167;BME280;56273;53.148;8.204;2022-08-21T13:56:29;101454.53;;;25.54;nan
69167;BME280;56273;53.148;8.204;2022-08-21T13:58:58;101457.28;;;25.52;nan
69167;BME280;56273;53.148;8.204;2022-08-21T14:01:26;101455.56;;;25.51;nan
69167;BME280;56273;53.148;8.204;2022-08-21T14:03:53;101456.44;;;25.52;nan
69167;BME280;56273;53.148;8.204;2022-08-21T14:06:23;101458.25;;;25.51;nan
69167;BME280;56273;53.148;8.204;2022-08-21T14:09:10;101459.09;;;25.52;nan
69167;BME280;56273;53.148;8.204;2022-08-21T14:11:44;101461.91;;;25.50;nan
69167;BME280;56273;53.148;8.204;2022-08-21T14:14:16;101462.84;;;25.49;nan
69167;BME280;56273;53.148;8.204;2022-08-21T14:16:57;101464.56;;;25.50;nan
69167;BME280;56273;53.148;8.204;2022-08-21T14:19:25;101464.47;;;25.52;nan
69167;BME280;56273;53.148;8.204;2022-08-21T14:25:13;101461.78;;;25.52;nan
69167;BME280;56273;53.148;8.204;2022-08-21T14:27:43;101467.25;;;25.50;nan
69167;BME280;56273;53.148;8.204;2022-08-21T14:30:17;101470.13;;;25.47;nan
69167;BME280;56273;53.148;8.204;2022-08-21T14:32:49;101471.94;;;25.47;nan
69167;BME280;56273;53.148;8.204;2022-08-21T14:35:14;101480.75;;;25.49;nan
69167;BME280;56273;53.148;8.204;2022-08-21T14:37:42;101474.50;;;25.48;nan
69167;BME280;56273;53.148;8.204;2022-08-21T14:40:09;101474.50;;;25.48;nan
69167;BME280;56273;53.148;8.204;2022-08-21T14:42:35;101473.66;;;25.48;nan